Fairpartner — PHEC — position and weather

sailwx.info

Track history (hours):
 
Tides and Currents Weather Stations Pressure Air Temp Water Temp Dewpoint Dewpoint Depression Visibility Wind Speed Wind Dir Waves Ship Positions

Fairpartner

Last reported at 2016-Jul-16 22:32 UTC. Time now 2016-Jul-28 02:56 UTC.
Position N 02°11' E 102°00'.
Warning: this ship's position is 11 days out of date.

Length 143 m; beam 27 m.

Type: Cargo ship. MMSI: 246466992.

Date/timePositionNaut miles runAvg speedWind from/ knotsBaromVisibWave heightAir tempDewpointWater temp
2016-Jul-16 22:32N 02°11' E 102°00'1414.7
2016-Jul-16 21:33N 02°02' E 102°11'1514.8
2016-Jul-16 20:34N 01°54' E 102°23'1515.3
2016-Jul-16 19:33N 01°47' E 102°37'1615.8
2016-Jul-16 18:33N 01°41' E 102°52'5215.3
2016-Jul-16 15:09N 01°12' E 103°35'814.2
2016-Jul-16 14:33N 01°09' E 103°43'1111.4
2016-Jul-16 13:33N 01°15' E 103°53'1 1.0
2016-Jul-16 12:29N 01°16' E 103°52'0 0.0
2016-Jul-16 11:29N 01°16' E 103°52'0 0.0
2016-Jul-16 10:29N 01°16' E 103°52'0 0.0
2016-Jul-16 09:32N 01°16' E 103°52'0 0.0
2016-Jul-16 08:25N 01°16' E 103°52'0 0.0
2016-Jul-16 07:29N 01°16' E 103°52'0 0.0
2016-Jul-16 06:32N 01°16' E 103°52'0 0.0
2016-Jul-16 04:32N 01°16' E 103°52'0 0.0
2016-Jul-16 03:32N 01°16' E 103°52'0 0.0
2016-Jul-16 02:32N 01°16' E 103°52'0 0.1
2016-Jul-16 01:33N 01°15' E 103°52'4 3.0
2016-Jul-16 00:14N 01°13' E 103°49'1 0.8
2016-Jul-15 23:33N 01°13' E 103°50'8 8.1
2016-Jul-15 22:33N 01°15' E 103°58'  
Track history (hours):
 
Tides and Currents Weather Stations Pressure Air Temp Water Temp Dewpoint Dewpoint Depression Visibility Wind Speed Wind Dir Waves Ship Positions

Fairpartner

Last reported at 2016-Jul-16 22:32 UTC. Time now 2016-Jul-28 02:56 UTC.
Position N 02°11' E 102°00'.
Warning: this ship's position is 11 days out of date.

Length 143 m; beam 27 m.

Type: Cargo ship. MMSI: 246466992.

Date/timePositionNaut miles runAvg speedWind from/ knotsBaromVisibWave heightAir tempDewpointWater temp
2016-Jul-16 22:32N 02°11' E 102°00'1414.7
2016-Jul-16 21:33N 02°02' E 102°11'1514.8
2016-Jul-16 20:34N 01°54' E 102°23'1515.3
2016-Jul-16 19:33N 01°47' E 102°37'1615.8
2016-Jul-16 18:33N 01°41' E 102°52'5215.3
2016-Jul-16 15:09N 01°12' E 103°35'814.2
2016-Jul-16 14:33N 01°09' E 103°43'1111.4
2016-Jul-16 13:33N 01°15' E 103°53'1 1.0
2016-Jul-16 12:29N 01°16' E 103°52'0 0.0
2016-Jul-16 11:29N 01°16' E 103°52'0 0.0
2016-Jul-16 10:29N 01°16' E 103°52'0 0.0
2016-Jul-16 09:32N 01°16' E 103°52'0 0.0
2016-Jul-16 08:25N 01°16' E 103°52'0 0.0
2016-Jul-16 07:29N 01°16' E 103°52'0 0.0
2016-Jul-16 06:32N 01°16' E 103°52'0 0.0
2016-Jul-16 04:32N 01°16' E 103°52'0 0.0
2016-Jul-16 03:32N 01°16' E 103°52'0 0.0
2016-Jul-16 02:32N 01°16' E 103°52'0 0.1
2016-Jul-16 01:33N 01°15' E 103°52'4 3.0
2016-Jul-16 00:14N 01°13' E 103°49'1 0.8
2016-Jul-15 23:33N 01°13' E 103°50'8 8.1
2016-Jul-15 22:33N 01°15' E 103°58'  

Dump ship's entire track history